sensor_id;sensor_type;location;lat;lon;timestamp;P1;durP1;ratioP1;P2;durP2;ratioP2
5937;SDS011;2994;51.220;4.412;2023-05-15T00:00:32;24.93;;;20.30;;
5937;SDS011;2994;51.220;4.412;2023-05-15T00:02:57;23.50;;;20.10;;
5937;SDS011;2994;51.220;4.412;2023-05-15T00:05:23;22.53;;;19.90;;
5937;SDS011;2994;51.220;4.412;2023-05-15T00:07:48;30.80;;;21.17;;
5937;SDS011;2994;51.220;4.412;2023-05-15T00:10:14;28.50;;;21.80;;
5937;SDS011;2994;51.220;4.412;2023-05-15T00:12:39;29.70;;;20.83;;
5937;SDS011;2994;51.220;4.412;2023-05-15T00:15:05;24.30;;;19.67;;
5937;SDS011;2994;51.220;4.412;2023-05-15T00:17:31;28.20;;;22.13;;
5937;SDS011;2994;51.220;4.412;2023-05-15T00:19:57;24.20;;;20.63;;
5937;SDS011;2994;51.220;4.412;2023-05-15T00:22:24;25.57;;;19.87;;
5937;SDS011;2994;51.220;4.412;2023-05-15T00:24:50;25.80;;;21.07;;
5937;SDS011;2994;51.220;4.412;2023-05-15T00:27:15;23.67;;;20.50;;
5937;SDS011;2994;51.220;4.412;2023-05-15T00:29:41;24.83;;;20.40;;
5937;SDS011;2994;51.220;4.412;2023-05-15T00:32:06;27.90;;;22.00;;
5937;SDS011;2994;51.220;4.412;2023-05-15T00:34:32;24.37;;;19.47;;
5937;SDS011;2994;51.220;4.412;2023-05-15T00:36:58;26.87;;;21.30;;
5937;SDS011;2994;51.220;4.412;2023-05-15T00:39:24;25.23;;;19.90;;
5937;SDS011;2994;51.220;4.412;2023-05-15T00:41:49;24.80;;;20.67;;
5937;SDS011;2994;51.220;4.412;2023-05-15T00:44:16;23.27;;;20.00;;
5937;SDS011;2994;51.220;4.412;2023-05-15T00:46:44;26.57;;;20.47;;
5937;SDS011;2994;51.220;4.412;2023-05-15T00:49:10;25.20;;;20.97;;
5937;SDS011;2994;51.220;4.412;2023-05-15T00:51:40;26.80;;;21.50;;
5937;SDS011;2994;51.220;4.412;2023-05-15T00:54:08;26.73;;;21.80;;
5937;SDS011;2994;51.220;4.412;2023-05-15T00:56:34;27.00;;;20.40;;
5937;SDS011;2994;51.220;4.412;2023-05-15T00:59:03;28.67;;;23.13;;
5937;SDS011;2994;51.220;4.412;2023-05-15T01:01:29;25.50;;;19.43;;
5937;SDS011;2994;51.220;4.412;2023-05-15T01:03:59;27.37;;;21.07;;
5937;SDS011;2994;51.220;4.412;2023-05-15T01:06:26;31.53;;;24.43;;
5937;SDS011;2994;51.220;4.412;2023-05-15T01:08:53;26.67;;;23.27;;
5937;SDS011;2994;51.220;4.412;2023-05-15T01:11:21;29.40;;;23.40;;
5937;SDS011;2994;51.220;4.412;2023-05-15T01:13:51;25.63;;;22.70;;
5937;SDS011;2994;51.220;4.412;2023-05-15T01:16:16;33.07;;;24.43;;
5937;SDS011;2994;51.220;4.412;2023-05-15T01:18:42;23.90;;;20.13;;
5937;SDS011;2994;51.220;4.412;2023-05-15T01:29:40;31.87;;;25.17;;
5937;SDS011;2994;51.220;4.412;2023-05-15T01:32:29;31.70;;;25.43;;
5937;SDS011;2994;51.220;4.412;2023-05-15T01:37:47;36.77;;;26.23;;
5937;SDS011;2994;51.220;4.412;2023-05-15T01:40:19;33.40;;;27.47;;
5937;SDS011;2994;51.220;4.412;2023-05-15T01:42:53;39.20;;;28.47;;
5937;SDS011;2994;51.220;4.412;2023-05-15T01:45:20;31.30;;;24.60;;
5937;SDS011;2994;51.220;4.412;2023-05-15T01:47:48;30.33;;;26.93;;
5937;SDS011;2994;51.220;4.412;2023-05-15T01:50:14;35.10;;;26.93;;
5937;SDS011;2994;51.220;4.412;2023-05-15T01:52:43;34.90;;;29.07;;
5937;SDS011;2994;51.220;4.412;2023-05-15T01:55:13;37.63;;;28.97;;
5937;SDS011;2994;51.220;4.412;2023-05-15T01:57:39;38.53;;;28.33;;
5937;SDS011;2994;51.220;4.412;2023-05-15T02:00:06;34.40;;;28.50;;
5937;SDS011;2994;51.220;4.412;2023-05-15T02:02:33;33.33;;;29.60;;
5937;SDS011;2994;51.220;4.412;2023-05-15T02:05:00;38.67;;;28.73;;
5937;SDS011;2994;51.220;4.412;2023-05-15T02:07:26;37.30;;;29.00;;
5937;SDS011;2994;51.220;4.412;2023-05-15T02:09:52;37.07;;;28.90;;
5937;SDS011;2994;51.220;4.412;2023-05-15T02:12:18;41.17;;;29.40;;
5937;SDS011;2994;51.220;4.412;2023-05-15T02:14:48;38.73;;;27.83;;
5937;SDS011;2994;51.220;4.412;2023-05-15T02:17:15;32.93;;;26.40;;
5937;SDS011;2994;51.220;4.412;2023-05-15T02:19:41;39.03;;;30.57;;
5937;SDS011;2994;51.220;4.412;2023-05-15T02:22:06;38.70;;;28.27;;
5937;SDS011;2994;51.220;4.412;2023-05-15T02:24:32;40.53;;;30.37;;
5937;SDS011;2994;51.220;4.412;2023-05-15T02:27:18;34.90;;;29.63;;
5937;SDS011;2994;51.220;4.412;2023-05-15T02:35:18;42.00;;;29.37;;
5937;SDS011;2994;51.220;4.412;2023-05-15T02:37:51;38.87;;;29.20;;
5937;SDS011;2994;51.220;4.412;2023-05-15T02:40:19;40.47;;;32.80;;
5937;SDS011;2994;51.220;4.412;2023-05-15T02:42:47;41.50;;;30.70;;
5937;SDS011;2994;51.220;4.412;2023-05-15T02:45:13;40.53;;;30.67;;
5937;SDS011;2994;51.220;4.412;2023-05-15T02:47:41;44.70;;;32.33;;
5937;SDS011;2994;51.220;4.412;2023-05-15T02:50:06;44.73;;;33.93;;
5937;SDS011;2994;51.220;4.412;2023-05-15T02:52:33;44.67;;;32.40;;
5937;SDS011;2994;51.220;4.412;2023-05-15T02:54:59;44.03;;;32.47;;
5937;SDS011;2994;51.220;4.412;2023-05-15T02:57:25;42.63;;;31.93;;
5937;SDS011;2994;51.220;4.412;2023-05-15T02:59:51;38.67;;;28.83;;
5937;SDS011;2994;51.220;4.412;2023-05-15T03:02:17;39.47;;;30.33;;
5937;SDS011;2994;51.220;4.412;2023-05-15T03:04:42;43.70;;;31.37;;
5937;SDS011;2994;51.220;4.412;2023-05-15T03:07:08;40.20;;;29.50;;
5937;SDS011;2994;51.220;4.412;2023-05-15T03:09:33;39.27;;;28.97;;
5937;SDS011;2994;51.220;4.412;2023-05-15T03:11:59;39.00;;;30.10;;
5937;SDS011;2994;51.220;4.412;2023-05-15T03:14:24;41.83;;;31.40;;
5937;SDS011;2994;51.220;4.412;2023-05-15T03:16:50;40.47;;;29.10;;
5937;SDS011;2994;51.220;4.412;2023-05-15T03:19:15;42.77;;;32.03;;
5937;SDS011;2994;51.220;4.412;2023-05-15T03:21:41;38.87;;;28.03;;
5937;SDS011;2994;51.220;4.412;2023-05-15T03:24:06;38.17;;;29.30;;
5937;SDS011;2994;51.220;4.412;2023-05-15T03:26:32;36.90;;;29.43;;
5937;SDS011;2994;51.220;4.412;2023-05-15T03:28:57;42.00;;;30.57;;
5937;SDS011;2994;51.220;4.412;2023-05-15T03:31:25;39.37;;;30.17;;
5937;SDS011;2994;51.220;4.412;2023-05-15T03:33:50;41.50;;;29.50;;
5937;SDS011;2994;51.220;4.412;2023-05-15T03:36:15;40.53;;;29.93;;
5937;SDS011;2994;51.220;4.412;2023-05-15T03:38:41;38.07;;;29.10;;
5937;SDS011;2994;51.220;4.412;2023-05-15T03:41:08;42.20;;;31.87;;
5937;SDS011;2994;51.220;4.412;2023-05-15T03:43:34;43.20;;;31.83;;
5937;SDS011;2994;51.220;4.412;2023-05-15T03:45:59;48.83;;;33.57;;
5937;SDS011;2994;51.220;4.412;2023-05-15T03:48:25;39.73;;;29.60;;
5937;SDS011;2994;51.220;4.412;2023-05-15T03:50:50;41.50;;;32.43;;
5937;SDS011;2994;51.220;4.412;2023-05-15T03:53:16;45.10;;;31.30;;
5937;SDS011;2994;51.220;4.412;2023-05-15T03:55:41;49.37;;;32.03;;
5937;SDS011;2994;51.220;4.412;2023-05-15T03:58:07;48.27;;;32.10;;
5937;SDS011;2994;51.220;4.412;2023-05-15T04:00:33;45.87;;;29.37;;
5937;SDS011;2994;51.220;4.412;2023-05-15T04:02:58;40.90;;;30.20;;
5937;SDS011;2994;51.220;4.412;2023-05-15T04:05:24;39.00;;;30.93;;
5937;SDS011;2994;51.220;4.412;2023-05-15T04:07:49;45.20;;;31.77;;
5937;SDS011;2994;51.220;4.412;2023-05-15T04:10:14;40.73;;;30.23;;
5937;SDS011;2994;51.220;4.412;2023-05-15T04:12:40;44.30;;;30.83;;
5937;SDS011;2994;51.220;4.412;2023-05-15T04:15:12;46.10;;;31.30;;
5937;SDS011;2994;51.220;4.412;2023-05-15T04:17:39;39.60;;;29.07;;
5937;SDS011;2994;51.220;4.412;2023-05-15T04:20:05;45.80;;;29.90;;
5937;SDS011;2994;51.220;4.412;2023-05-15T04:22:32;40.57;;;30.97;;
5937;SDS011;2994;51.220;4.412;2023-05-15T04:24:58;46.40;;;32.00;;
5937;SDS011;2994;51.220;4.412;2023-05-15T04:27:23;43.20;;;32.00;;
5937;SDS011;2994;51.220;4.412;2023-05-15T04:29:49;44.80;;;33.63;;
5937;SDS011;2994;51.220;4.412;2023-05-15T04:32:15;47.33;;;33.20;;
5937;SDS011;2994;51.220;4.412;2023-05-15T04:34:40;53.13;;;34.47;;
5937;SDS011;2994;51.220;4.412;2023-05-15T04:37:06;49.43;;;34.27;;
5937;SDS011;2994;51.220;4.412;2023-05-15T04:39:31;48.17;;;34.47;;
5937;SDS011;2994;51.220;4.412;2023-05-15T04:41:57;47.07;;;33.70;;
5937;SDS011;2994;51.220;4.412;2023-05-15T04:44:22;47.20;;;32.10;;
5937;SDS011;2994;51.220;4.412;2023-05-15T04:46:48;50.63;;;36.20;;
5937;SDS011;2994;51.220;4.412;2023-05-15T04:49:13;49.47;;;34.43;;
5937;SDS011;2994;51.220;4.412;2023-05-15T04:51:39;49.87;;;34.23;;
5937;SDS011;2994;51.220;4.412;2023-05-15T04:54:05;50.77;;;34.07;;
5937;SDS011;2994;51.220;4.412;2023-05-15T04:56:31;50.33;;;33.20;;
5937;SDS011;2994;51.220;4.412;2023-05-15T04:58:57;57.20;;;36.83;;
5937;SDS011;2994;51.220;4.412;2023-05-15T05:01:22;48.43;;;34.70;;
5937;SDS011;2994;51.220;4.412;2023-05-15T05:03:47;50.37;;;35.50;;
5937;SDS011;2994;51.220;4.412;2023-05-15T05:06:13;52.50;;;36.37;;
5937;SDS011;2994;51.220;4.412;2023-05-15T05:08:38;63.80;;;41.67;;
5937;SDS011;2994;51.220;4.412;2023-05-15T05:11:04;60.07;;;40.13;;
5937;SDS011;2994;51.220;4.412;2023-05-15T05:13:29;58.90;;;39.00;;
5937;SDS011;2994;51.220;4.412;2023-05-15T05:15:55;57.60;;;38.13;;
5937;SDS011;2994;51.220;4.412;2023-05-15T05:18:20;59.63;;;39.43;;
5937;SDS011;2994;51.220;4.412;2023-05-15T05:20:45;61.50;;;40.07;;
5937;SDS011;2994;51.220;4.412;2023-05-15T05:23:11;58.33;;;39.13;;
5937;SDS011;2994;51.220;4.412;2023-05-15T05:25:38;58.43;;;38.33;;
5937;SDS011;2994;51.220;4.412;2023-05-15T05:28:04;61.20;;;39.40;;
5937;SDS011;2994;51.220;4.412;2023-05-15T05:30:29;60.47;;;40.10;;
5937;SDS011;2994;51.220;4.412;2023-05-15T05:32:55;58.00;;;38.77;;
5937;SDS011;2994;51.220;4.412;2023-05-15T05:35:20;53.47;;;37.27;;
5937;SDS011;2994;51.220;4.412;2023-05-15T05:37:46;60.87;;;40.07;;
5937;SDS011;2994;51.220;4.412;2023-05-15T05:40:11;63.67;;;41.40;;
5937;SDS011;2994;51.220;4.412;2023-05-15T05:42:37;55.07;;;38.43;;
5937;SDS011;2994;51.220;4.412;2023-05-15T05:45:03;62.00;;;39.50;;
5937;SDS011;2994;51.220;4.412;2023-05-15T05:47:29;65.07;;;39.53;;
5937;SDS011;2994;51.220;4.412;2023-05-15T05:49:55;56.63;;;39.57;;
5937;SDS011;2994;51.220;4.412;2023-05-15T05:52:20;60.10;;;39.33;;
5937;SDS011;2994;51.220;4.412;2023-05-15T05:54:46;56.40;;;37.23;;
5937;SDS011;2994;51.220;4.412;2023-05-15T05:57:12;60.13;;;37.40;;
5937;SDS011;2994;51.220;4.412;2023-05-15T05:59:38;60.23;;;39.30;;
5937;SDS011;2994;51.220;4.412;2023-05-15T06:02:03;58.40;;;39.87;;
5937;SDS011;2994;51.220;4.412;2023-05-15T06:04:30;62.00;;;39.80;;
5937;SDS011;2994;51.220;4.412;2023-05-15T06:06:57;70.30;;;38.43;;
5937;SDS011;2994;51.220;4.412;2023-05-15T06:09:23;63.50;;;43.87;;
5937;SDS011;2994;51.220;4.412;2023-05-15T06:11:48;65.83;;;39.97;;
5937;SDS011;2994;51.220;4.412;2023-05-15T06:14:14;64.23;;;41.83;;
5937;SDS011;2994;51.220;4.412;2023-05-15T06:16:40;61.40;;;38.80;;
5937;SDS011;2994;51.220;4.412;2023-05-15T06:19:05;68.70;;;41.50;;
5937;SDS011;2994;51.220;4.412;2023-05-15T06:21:31;66.50;;;40.53;;
5937;SDS011;2994;51.220;4.412;2023-05-15T06:23:57;64.63;;;37.97;;
5937;SDS011;2994;51.220;4.412;2023-05-15T06:26:23;63.23;;;37.13;;
5937;SDS011;2994;51.220;4.412;2023-05-15T06:28:49;55.53;;;36.30;;
5937;SDS011;2994;51.220;4.412;2023-05-15T06:31:15;64.10;;;38.23;;
5937;SDS011;2994;51.220;4.412;2023-05-15T06:33:41;71.90;;;39.50;;
5937;SDS011;2994;51.220;4.412;2023-05-15T06:36:06;66.17;;;40.03;;
5937;SDS011;2994;51.220;4.412;2023-05-15T06:38:32;64.07;;;38.40;;
5937;SDS011;2994;51.220;4.412;2023-05-15T06:40:58;61.50;;;36.67;;
5937;SDS011;2994;51.220;4.412;2023-05-15T06:43:23;69.50;;;41.43;;
5937;SDS011;2994;51.220;4.412;2023-05-15T06:45:49;64.43;;;37.83;;
5937;SDS011;2994;51.220;4.412;2023-05-15T06:48:14;61.10;;;38.63;;
5937;SDS011;2994;51.220;4.412;2023-05-15T06:50:40;67.10;;;39.87;;
5937;SDS011;2994;51.220;4.412;2023-05-15T06:53:05;64.83;;;38.70;;
5937;SDS011;2994;51.220;4.412;2023-05-15T06:55:31;63.20;;;38.40;;
5937;SDS011;2994;51.220;4.412;2023-05-15T06:57:58;58.37;;;39.37;;
5937;SDS011;2994;51.220;4.412;2023-05-15T07:00:23;54.83;;;35.60;;
5937;SDS011;2994;51.220;4.412;2023-05-15T07:02:48;61.23;;;38.97;;
5937;SDS011;2994;51.220;4.412;2023-05-15T07:05:14;63.50;;;38.53;;
5937;SDS011;2994;51.220;4.412;2023-05-15T07:07:39;63.90;;;38.37;;
5937;SDS011;2994;51.220;4.412;2023-05-15T07:10:05;60.27;;;37.43;;
5937;SDS011;2994;51.220;4.412;2023-05-15T07:12:31;60.63;;;34.93;;
5937;SDS011;2994;51.220;4.412;2023-05-15T07:14:58;65.47;;;38.47;;
5937;SDS011;2994;51.220;4.412;2023-05-15T07:17:23;63.87;;;39.70;;
5937;SDS011;2994;51.220;4.412;2023-05-15T07:19:49;59.47;;;38.70;;
5937;SDS011;2994;51.220;4.412;2023-05-15T07:22:15;60.27;;;37.87;;
5937;SDS011;2994;51.220;4.412;2023-05-15T07:24:40;62.00;;;36.00;;
5937;SDS011;2994;51.220;4.412;2023-05-15T07:27:05;67.40;;;40.17;;
5937;SDS011;2994;51.220;4.412;2023-05-15T07:29:31;71.33;;;39.10;;
5937;SDS011;2994;51.220;4.412;2023-05-15T07:31:56;66.30;;;38.30;;
5937;SDS011;2994;51.220;4.412;2023-05-15T07:34:22;62.67;;;40.00;;
5937;SDS011;2994;51.220;4.412;2023-05-15T07:36:47;65.10;;;38.80;;
5937;SDS011;2994;51.220;4.412;2023-05-15T07:39:13;67.97;;;40.90;;
5937;SDS011;2994;51.220;4.412;2023-05-15T07:41:39;68.10;;;39.90;;
5937;SDS011;2994;51.220;4.412;2023-05-15T07:44:04;66.40;;;37.57;;
5937;SDS011;2994;51.220;4.412;2023-05-15T07:46:30;68.10;;;38.30;;
5937;SDS011;2994;51.220;4.412;2023-05-15T07:48:57;68.07;;;37.93;;
5937;SDS011;2994;51.220;4.412;2023-05-15T07:51:22;74.63;;;40.87;;
5937;SDS011;2994;51.220;4.412;2023-05-15T07:53:48;57.40;;;38.70;;
5937;SDS011;2994;51.220;4.412;2023-05-15T07:56:13;63.47;;;36.93;;
5937;SDS011;2994;51.220;4.412;2023-05-15T07:58:39;68.07;;;42.00;;
5937;SDS011;2994;51.220;4.412;2023-05-15T08:01:05;62.43;;;37.90;;
5937;SDS011;2994;51.220;4.412;2023-05-15T08:03:30;64.63;;;40.77;;
5937;SDS011;2994;51.220;4.412;2023-05-15T08:05:56;71.83;;;43.47;;
5937;SDS011;2994;51.220;4.412;2023-05-15T08:08:21;79.97;;;44.80;;
5937;SDS011;2994;51.220;4.412;2023-05-15T08:10:47;84.03;;;52.20;;
5937;SDS011;2994;51.220;4.412;2023-05-15T08:13:12;89.70;;;48.43;;
5937;SDS011;2994;51.220;4.412;2023-05-15T08:15:37;90.67;;;51.90;;
5937;SDS011;2994;51.220;4.412;2023-05-15T08:18:09;93.07;;;51.80;;
5937;SDS011;2994;51.220;4.412;2023-05-15T08:20:35;110.23;;;57.07;;
5937;SDS011;2994;51.220;4.412;2023-05-15T08:23:01;92.83;;;50.47;;
5937;SDS011;2994;51.220;4.412;2023-05-15T08:25:26;100.20;;;53.47;;
5937;SDS011;2994;51.220;4.412;2023-05-15T08:27:52;90.13;;;52.77;;
5937;SDS011;2994;51.220;4.412;2023-05-15T08:30:17;96.23;;;54.40;;
5937;SDS011;2994;51.220;4.412;2023-05-15T08:32:43;106.03;;;56.67;;
5937;SDS011;2994;51.220;4.412;2023-05-15T08:35:12;98.60;;;56.70;;
5937;SDS011;2994;51.220;4.412;2023-05-15T08:37:38;105.47;;;56.37;;
5937;SDS011;2994;51.220;4.412;2023-05-15T08:40:04;115.23;;;60.00;;
5937;SDS011;2994;51.220;4.412;2023-05-15T08:42:34;119.87;;;57.83;;
5937;SDS011;2994;51.220;4.412;2023-05-15T08:45:04;114.83;;;57.00;;
5937;SDS011;2994;51.220;4.412;2023-05-15T08:47:31;116.80;;;58.30;;
5937;SDS011;2994;51.220;4.412;2023-05-15T08:50:07;94.03;;;54.30;;
5937;SDS011;2994;51.220;4.412;2023-05-15T08:52:39;96.30;;;51.37;;
5937;SDS011;2994;51.220;4.412;2023-05-15T08:55:09;97.27;;;51.10;;
5937;SDS011;2994;51.220;4.412;2023-05-15T08:57:35;90.50;;;52.07;;
5937;SDS011;2994;51.220;4.412;2023-05-15T09:00:02;90.87;;;49.43;;
5937;SDS011;2994;51.220;4.412;2023-05-15T09:02:32;87.47;;;51.33;;
5937;SDS011;2994;51.220;4.412;2023-05-15T09:04:58;102.90;;;53.87;;
5937;SDS011;2994;51.220;4.412;2023-05-15T09:07:23;93.57;;;53.47;;
5937;SDS011;2994;51.220;4.412;2023-05-15T09:09:49;103.27;;;52.20;;
5937;SDS011;2994;51.220;4.412;2023-05-15T09:12:16;86.23;;;48.73;;
5937;SDS011;2994;51.220;4.412;2023-05-15T09:14:42;95.30;;;50.97;;
5937;SDS011;2994;51.220;4.412;2023-05-15T09:17:11;94.33;;;51.20;;
5937;SDS011;2994;51.220;4.412;2023-05-15T09:19:40;97.40;;;51.00;;
5937;SDS011;2994;51.220;4.412;2023-05-15T09:22:13;86.43;;;48.00;;
5937;SDS011;2994;51.220;4.412;2023-05-15T09:24:47;84.07;;;49.20;;
5937;SDS011;2994;51.220;4.412;2023-05-15T09:27:13;71.80;;;43.90;;
5937;SDS011;2994;51.220;4.412;2023-05-15T09:29:38;67.93;;;42.07;;
5937;SDS011;2994;51.220;4.412;2023-05-15T09:32:08;75.17;;;42.57;;
5937;SDS011;2994;51.220;4.412;2023-05-15T09:34:35;63.63;;;40.43;;
5937;SDS011;2994;51.220;4.412;2023-05-15T09:37:11;66.80;;;43.67;;
5937;SDS011;2994;51.220;4.412;2023-05-15T09:39:51;76.10;;;43.53;;
5937;SDS011;2994;51.220;4.412;2023-05-15T09:42:18;74.30;;;45.23;;
5937;SDS011;2994;51.220;4.412;2023-05-15T09:44:44;73.97;;;40.90;;
5937;SDS011;2994;51.220;4.412;2023-05-15T09:47:13;68.83;;;44.23;;
5937;SDS011;2994;51.220;4.412;2023-05-15T09:49:42;65.03;;;41.40;;
5937;SDS011;2994;51.220;4.412;2023-05-15T09:52:09;75.73;;;43.80;;
5937;SDS011;2994;51.220;4.412;2023-05-15T09:54:35;86.97;;;46.33;;
5937;SDS011;2994;51.220;4.412;2023-05-15T09:57:08;64.53;;;39.50;;
5937;SDS011;2994;51.220;4.412;2023-05-15T09:59:34;60.70;;;38.07;;
5937;SDS011;2994;51.220;4.412;2023-05-15T10:01:59;63.00;;;41.53;;
5937;SDS011;2994;51.220;4.412;2023-05-15T10:04:25;69.37;;;43.43;;
5937;SDS011;2994;51.220;4.412;2023-05-15T10:06:50;72.77;;;43.40;;
5937;SDS011;2994;51.220;4.412;2023-05-15T10:09:17;78.57;;;44.97;;
5937;SDS011;2994;51.220;4.412;2023-05-15T10:11:49;84.67;;;46.17;;
5937;SDS011;2994;51.220;4.412;2023-05-15T10:14:16;78.43;;;47.03;;
5937;SDS011;2994;51.220;4.412;2023-05-15T10:16:43;79.37;;;46.43;;
5937;SDS011;2994;51.220;4.412;2023-05-15T10:19:10;78.07;;;44.93;;
5937;SDS011;2994;51.220;4.412;2023-05-15T10:21:38;78.80;;;47.10;;
5937;SDS011;2994;51.220;4.412;2023-05-15T10:24:05;78.50;;;45.40;;
5937;SDS011;2994;51.220;4.412;2023-05-15T10:26:37;75.83;;;43.90;;
5937;SDS011;2994;51.220;4.412;2023-05-15T10:29:11;77.63;;;43.57;;
5937;SDS011;2994;51.220;4.412;2023-05-15T10:31:38;80.53;;;45.47;;
5937;SDS011;2994;51.220;4.412;2023-05-15T10:34:04;80.43;;;46.63;;
5937;SDS011;2994;51.220;4.412;2023-05-15T10:36:31;76.80;;;43.67;;
5937;SDS011;2994;51.220;4.412;2023-05-15T10:38:58;77.20;;;44.87;;
5937;SDS011;2994;51.220;4.412;2023-05-15T10:41:26;77.27;;;44.93;;
5937;SDS011;2994;51.220;4.412;2023-05-15T10:43:53;83.77;;;44.37;;
5937;SDS011;2994;51.220;4.412;2023-05-15T10:46:21;74.40;;;44.13;;
5937;SDS011;2994;51.220;4.412;2023-05-15T10:48:47;79.73;;;46.17;;
5937;SDS011;2994;51.220;4.412;2023-05-15T10:51:17;83.83;;;47.37;;
5937;SDS011;2994;51.220;4.412;2023-05-15T10:53:48;88.27;;;48.60;;
5937;SDS011;2994;51.220;4.412;2023-05-15T10:56:14;84.33;;;44.77;;
5937;SDS011;2994;51.220;4.412;2023-05-15T10:58:47;87.53;;;48.30;;
5937;SDS011;2994;51.220;4.412;2023-05-15T11:01:23;80.93;;;44.63;;
5937;SDS011;2994;51.220;4.412;2023-05-15T11:04:08;98.40;;;49.33;;
5937;SDS011;2994;51.220;4.412;2023-05-15T11:06:35;106.93;;;49.87;;
5937;SDS011;2994;51.220;4.412;2023-05-15T11:11:56;98.43;;;48.43;;
5937;SDS011;2994;51.220;4.412;2023-05-15T11:14:23;92.57;;;49.03;;
5937;SDS011;2994;51.220;4.412;2023-05-15T11:19:21;96.20;;;48.60;;
5937;SDS011;2994;51.220;4.412;2023-05-15T11:21:57;97.63;;;46.70;;
5937;SDS011;2994;51.220;4.412;2023-05-15T11:24:31;72.03;;;40.23;;
5937;SDS011;2994;51.220;4.412;2023-05-15T11:27:02;68.47;;;35.00;;
5937;SDS011;2994;51.220;4.412;2023-05-15T11:29:28;59.70;;;33.40;;
5937;SDS011;2994;51.220;4.412;2023-05-15T11:31:55;52.33;;;30.97;;
5937;SDS011;2994;51.220;4.412;2023-05-15T11:34:56;50.20;;;29.77;;
5937;SDS011;2994;51.220;4.412;2023-05-15T11:37:16;51.10;;;29.87;;
5937;SDS011;2994;51.220;4.412;2023-05-15T11:39:42;55.87;;;28.73;;
5937;SDS011;2994;51.220;4.412;2023-05-15T11:42:11;50.00;;;26.10;;
5937;SDS011;2994;51.220;4.412;2023-05-15T11:44:37;40.63;;;23.60;;
5937;SDS011;2994;51.220;4.412;2023-05-15T11:47:03;34.50;;;23.13;;
5937;SDS011;2994;51.220;4.412;2023-05-15T11:49:34;37.80;;;23.70;;
5937;SDS011;2994;51.220;4.412;2023-05-15T11:51:59;41.60;;;23.53;;
5937;SDS011;2994;51.220;4.412;2023-05-15T11:54:25;36.80;;;21.60;;
5937;SDS011;2994;51.220;4.412;2023-05-15T11:56:51;41.30;;;22.30;;
5937;SDS011;2994;51.220;4.412;2023-05-15T11:59:21;33.23;;;21.13;;
5937;SDS011;2994;51.220;4.412;2023-05-15T12:01:51;36.10;;;23.20;;
5937;SDS011;2994;51.220;4.412;2023-05-15T12:04:16;37.93;;;21.43;;
5937;SDS011;2994;51.220;4.412;2023-05-15T12:06:42;33.83;;;19.43;;
5937;SDS011;2994;51.220;4.412;2023-05-15T12:09:14;28.33;;;18.23;;
5937;SDS011;2994;51.220;4.412;2023-05-15T12:11:49;33.07;;;19.87;;
5937;SDS011;2994;51.220;4.412;2023-05-15T12:14:15;29.93;;;18.80;;
5937;SDS011;2994;51.220;4.412;2023-05-15T12:16:41;30.93;;;18.57;;
5937;SDS011;2994;51.220;4.412;2023-05-15T12:19:06;24.97;;;15.63;;
5937;SDS011;2994;51.220;4.412;2023-05-15T12:21:33;24.33;;;15.53;;
5937;SDS011;2994;51.220;4.412;2023-05-15T12:23:59;16.43;;;11.30;;
5937;SDS011;2994;51.220;4.412;2023-05-15T12:26:25;15.67;;;10.30;;
5937;SDS011;2994;51.220;4.412;2023-05-15T12:28:53;11.20;;;9.50;;
5937;SDS011;2994;51.220;4.412;2023-05-15T12:31:19;11.53;;;8.10;;
5937;SDS011;2994;51.220;4.412;2023-05-15T12:33:45;13.73;;;8.67;;
5937;SDS011;2994;51.220;4.412;2023-05-15T12:36:11;11.90;;;8.87;;
5937;SDS011;2994;51.220;4.412;2023-05-15T12:38:36;11.50;;;8.60;;
5937;SDS011;2994;51.220;4.412;2023-05-15T12:41:04;8.60;;;7.30;;
5937;SDS011;2994;51.220;4.412;2023-05-15T12:43:29;13.03;;;8.50;;
5937;SDS011;2994;51.220;4.412;2023-05-15T12:45:55;9.00;;;6.50;;
5937;SDS011;2994;51.220;4.412;2023-05-15T12:48:21;10.50;;;7.37;;
5937;SDS011;2994;51.220;4.412;2023-05-15T12:50:47;7.97;;;6.17;;
5937;SDS011;2994;51.220;4.412;2023-05-15T12:53:14;9.37;;;6.83;;
5937;SDS011;2994;51.220;4.412;2023-05-15T12:55:40;10.03;;;6.20;;
5937;SDS011;2994;51.220;4.412;2023-05-15T12:58:09;9.40;;;5.80;;
5937;SDS011;2994;51.220;4.412;2023-05-15T13:00:36;8.03;;;5.93;;
5937;SDS011;2994;51.220;4.412;2023-05-15T13:03:04;13.40;;;7.50;;
5937;SDS011;2994;51.220;4.412;2023-05-15T13:05:32;17.37;;;6.13;;
5937;SDS011;2994;51.220;4.412;2023-05-15T13:07:59;15.83;;;6.53;;
5937;SDS011;2994;51.220;4.412;2023-05-15T13:10:26;10.40;;;6.73;;
5937;SDS011;2994;51.220;4.412;2023-05-15T13:12:53;8.63;;;5.67;;
5937;SDS011;2994;51.220;4.412;2023-05-15T13:20:33;7.30;;;5.10;;
5937;SDS011;2994;51.220;4.412;2023-05-15T13:23:01;7.63;;;5.00;;
5937;SDS011;2994;51.220;4.412;2023-05-15T13:25:27;5.63;;;4.63;;
5937;SDS011;2994;51.220;4.412;2023-05-15T13:27:54;6.40;;;4.57;;
5937;SDS011;2994;51.220;4.412;2023-05-15T13:30:21;13.10;;;5.53;;
5937;SDS011;2994;51.220;4.412;2023-05-15T13:32:46;7.10;;;4.70;;
5937;SDS011;2994;51.220;4.412;2023-05-15T13:35:12;12.53;;;5.73;;
5937;SDS011;2994;51.220;4.412;2023-05-15T13:37:37;8.33;;;5.33;;
5937;SDS011;2994;51.220;4.412;2023-05-15T13:40:03;9.90;;;5.90;;
5937;SDS011;2994;51.220;4.412;2023-05-15T13:42:34;10.17;;;6.77;;
5937;SDS011;2994;51.220;4.412;2023-05-15T13:45:00;10.47;;;5.23;;
5937;SDS011;2994;51.220;4.412;2023-05-15T13:47:26;7.10;;;5.40;;
5937;SDS011;2994;51.220;4.412;2023-05-15T13:49:52;13.97;;;6.27;;
5937;SDS011;2994;51.220;4.412;2023-05-15T13:52:17;9.17;;;5.50;;
5937;SDS011;2994;51.220;4.412;2023-05-15T13:54:43;6.67;;;5.47;;
5937;SDS011;2994;51.220;4.412;2023-05-15T13:57:09;6.87;;;5.90;;
5937;SDS011;2994;51.220;4.412;2023-05-15T13:59:34;7.90;;;4.87;;
5937;SDS011;2994;51.220;4.412;2023-05-15T14:01:59;9.20;;;6.03;;
5937;SDS011;2994;51.220;4.412;2023-05-15T14:04:25;8.50;;;5.73;;
5937;SDS011;2994;51.220;4.412;2023-05-15T14:06:50;5.97;;;4.77;;
5937;SDS011;2994;51.220;4.412;2023-05-15T14:09:16;10.00;;;5.30;;
5937;SDS011;2994;51.220;4.412;2023-05-15T14:11:41;6.63;;;5.30;;
5937;SDS011;2994;51.220;4.412;2023-05-15T14:14:07;10.80;;;6.50;;
5937;SDS011;2994;51.220;4.412;2023-05-15T14:16:32;5.87;;;4.90;;
5937;SDS011;2994;51.220;4.412;2023-05-15T14:18:58;9.13;;;3.67;;
5937;SDS011;2994;51.220;4.412;2023-05-15T14:21:23;8.67;;;4.90;;
5937;SDS011;2994;51.220;4.412;2023-05-15T14:23:49;6.97;;;4.60;;
5937;SDS011;2994;51.220;4.412;2023-05-15T14:26:14;7.13;;;4.87;;
5937;SDS011;2994;51.220;4.412;2023-05-15T14:28:40;7.50;;;4.33;;
5937;SDS011;2994;51.220;4.412;2023-05-15T14:31:05;7.67;;;5.70;;
5937;SDS011;2994;51.220;4.412;2023-05-15T14:33:31;13.97;;;6.67;;
5937;SDS011;2994;51.220;4.412;2023-05-15T14:35:56;7.07;;;4.93;;
5937;SDS011;2994;51.220;4.412;2023-05-15T14:38:21;6.23;;;3.80;;
5937;SDS011;2994;51.220;4.412;2023-05-15T14:40:47;7.17;;;3.83;;
5937;SDS011;2994;51.220;4.412;2023-05-15T14:43:13;10.20;;;5.17;;
5937;SDS011;2994;51.220;4.412;2023-05-15T14:45:38;9.50;;;4.40;;
5937;SDS011;2994;51.220;4.412;2023-05-15T14:48:03;5.00;;;3.73;;
5937;SDS011;2994;51.220;4.412;2023-05-15T14:50:29;11.70;;;5.13;;
5937;SDS011;2994;51.220;4.412;2023-05-15T14:52:54;11.30;;;5.67;;
5937;SDS011;2994;51.220;4.412;2023-05-15T14:55:20;6.63;;;5.80;;
5937;SDS011;2994;51.220;4.412;2023-05-15T14:57:46;13.17;;;8.70;;
5937;SDS011;2994;51.220;4.412;2023-05-15T15:00:15;10.83;;;8.17;;
5937;SDS011;2994;51.220;4.412;2023-05-15T15:02:41;12.10;;;8.37;;
5937;SDS011;2994;51.220;4.412;2023-05-15T15:05:07;13.90;;;9.80;;
5937;SDS011;2994;51.220;4.412;2023-05-15T15:07:56;13.53;;;7.67;;
5937;SDS011;2994;51.220;4.412;2023-05-15T15:10:23;9.70;;;6.57;;
5937;SDS011;2994;51.220;4.412;2023-05-15T15:12:52;11.90;;;5.83;;
5937;SDS011;2994;51.220;4.412;2023-05-15T15:15:18;8.80;;;5.50;;